sensor_id;sensor_type;location;lat;lon;timestamp;P1;durP1;ratioP1;P2;durP2;ratioP2
22843;SDS011;11588;51.178;4.852;2023-04-24T00:00:33;36.97;;;24.10;;
22843;SDS011;11588;51.178;4.852;2023-04-24T00:02:58;36.45;;;23.50;;
22843;SDS011;11588;51.178;4.852;2023-04-24T00:05:24;35.95;;;23.50;;
22843;SDS011;11588;51.178;4.852;2023-04-24T00:07:49;34.33;;;22.58;;
22843;SDS011;11588;51.178;4.852;2023-04-24T00:10:18;41.80;;;25.13;;
22843;SDS011;11588;51.178;4.852;2023-04-24T00:12:43;35.58;;;24.38;;
22843;SDS011;11588;51.178;4.852;2023-04-24T00:15:09;36.13;;;24.38;;
22843;SDS011;11588;51.178;4.852;2023-04-24T00:17:35;32.80;;;24.08;;
22843;SDS011;11588;51.178;4.852;2023-04-24T00:20:00;35.58;;;22.70;;
22843;SDS011;11588;51.178;4.852;2023-04-24T00:22:27;34.63;;;23.77;;
22843;SDS011;11588;51.178;4.852;2023-04-24T00:24:53;35.85;;;23.08;;
22843;SDS011;11588;51.178;4.852;2023-04-24T00:27:20;39.80;;;24.48;;
22843;SDS011;11588;51.178;4.852;2023-04-24T00:29:45;40.13;;;25.05;;
22843;SDS011;11588;51.178;4.852;2023-04-24T00:32:11;38.60;;;24.67;;
22843;SDS011;11588;51.178;4.852;2023-04-24T00:34:36;37.67;;;25.40;;
22843;SDS011;11588;51.178;4.852;2023-04-24T00:37:03;37.55;;;24.38;;
22843;SDS011;11588;51.178;4.852;2023-04-24T00:39:28;33.90;;;24.52;;
22843;SDS011;11588;51.178;4.852;2023-04-24T00:41:54;33.25;;;24.00;;
22843;SDS011;11588;51.178;4.852;2023-04-24T00:44:23;31.42;;;22.65;;
22843;SDS011;11588;51.178;4.852;2023-04-24T00:46:49;37.10;;;24.25;;
22843;SDS011;11588;51.178;4.852;2023-04-24T00:49:19;28.60;;;20.73;;
22843;SDS011;11588;51.178;4.852;2023-04-24T00:51:45;34.20;;;23.40;;
22843;SDS011;11588;51.178;4.852;2023-04-24T00:54:11;32.13;;;24.60;;
22843;SDS011;11588;51.178;4.852;2023-04-24T00:56:36;34.08;;;24.20;;
22843;SDS011;11588;51.178;4.852;2023-04-24T00:59:03;30.30;;;24.08;;
22843;SDS011;11588;51.178;4.852;2023-04-24T01:01:29;32.72;;;23.73;;
22843;SDS011;11588;51.178;4.852;2023-04-24T01:03:55;37.10;;;24.95;;
22843;SDS011;11588;51.178;4.852;2023-04-24T01:06:23;36.72;;;25.77;;
22843;SDS011;11588;51.178;4.852;2023-04-24T01:08:48;35.13;;;24.52;;
22843;SDS011;11588;51.178;4.852;2023-04-24T01:11:17;35.00;;;25.08;;
22843;SDS011;11588;51.178;4.852;2023-04-24T01:13:43;33.55;;;25.35;;
22843;SDS011;11588;51.178;4.852;2023-04-24T01:16:08;33.78;;;24.92;;
22843;SDS011;11588;51.178;4.852;2023-04-24T01:18:33;32.85;;;26.13;;
22843;SDS011;11588;51.178;4.852;2023-04-24T01:20:59;34.90;;;24.98;;
22843;SDS011;11588;51.178;4.852;2023-04-24T01:23:26;36.88;;;25.08;;
22843;SDS011;11588;51.178;4.852;2023-04-24T01:25:52;35.47;;;25.35;;
22843;SDS011;11588;51.178;4.852;2023-04-24T01:28:17;33.25;;;24.58;;
22843;SDS011;11588;51.178;4.852;2023-04-24T01:30:43;30.83;;;24.30;;
22843;SDS011;11588;51.178;4.852;2023-04-24T01:33:09;33.45;;;23.65;;
22843;SDS011;11588;51.178;4.852;2023-04-24T01:35:35;30.27;;;22.67;;
22843;SDS011;11588;51.178;4.852;2023-04-24T01:38:01;30.00;;;23.05;;
22843;SDS011;11588;51.178;4.852;2023-04-24T01:40:28;27.17;;;20.90;;
22843;SDS011;11588;51.178;4.852;2023-04-24T01:42:53;28.65;;;20.98;;
22843;SDS011;11588;51.178;4.852;2023-04-24T01:45:18;25.05;;;19.17;;
22843;SDS011;11588;51.178;4.852;2023-04-24T01:47:46;26.98;;;19.05;;
22843;SDS011;11588;51.178;4.852;2023-04-24T01:50:11;22.60;;;18.33;;
22843;SDS011;11588;51.178;4.852;2023-04-24T01:52:37;24.88;;;17.60;;
22843;SDS011;11588;51.178;4.852;2023-04-24T01:55:03;20.30;;;15.48;;
22843;SDS011;11588;51.178;4.852;2023-04-24T01:57:31;20.02;;;15.02;;
22843;SDS011;11588;51.178;4.852;2023-04-24T01:59:57;21.02;;;14.88;;
22843;SDS011;11588;51.178;4.852;2023-04-24T02:02:22;19.08;;;13.77;;
22843;SDS011;11588;51.178;4.852;2023-04-24T02:04:49;21.25;;;15.23;;
22843;SDS011;11588;51.178;4.852;2023-04-24T02:07:15;20.27;;;14.88;;
22843;SDS011;11588;51.178;4.852;2023-04-24T02:09:40;21.02;;;15.18;;
22843;SDS011;11588;51.178;4.852;2023-04-24T02:12:05;25.23;;;16.20;;
22843;SDS011;11588;51.178;4.852;2023-04-24T02:14:31;23.63;;;15.30;;
22843;SDS011;11588;51.178;4.852;2023-04-24T02:16:57;21.63;;;14.63;;
22843;SDS011;11588;51.178;4.852;2023-04-24T02:19:22;19.23;;;15.43;;
22843;SDS011;11588;51.178;4.852;2023-04-24T02:21:48;20.20;;;15.18;;
22843;SDS011;11588;51.178;4.852;2023-04-24T02:24:13;22.30;;;15.93;;
22843;SDS011;11588;51.178;4.852;2023-04-24T02:26:39;21.13;;;15.82;;
22843;SDS011;11588;51.178;4.852;2023-04-24T02:29:04;22.27;;;16.52;;
22843;SDS011;11588;51.178;4.852;2023-04-24T02:31:30;22.08;;;17.83;;
22843;SDS011;11588;51.178;4.852;2023-04-24T02:33:57;21.13;;;17.35;;
22843;SDS011;11588;51.178;4.852;2023-04-24T02:36:22;24.48;;;18.85;;
22843;SDS011;11588;51.178;4.852;2023-04-24T02:38:48;24.77;;;19.50;;
22843;SDS011;11588;51.178;4.852;2023-04-24T02:41:13;25.92;;;20.75;;
22843;SDS011;11588;51.178;4.852;2023-04-24T02:43:38;25.33;;;19.73;;
22843;SDS011;11588;51.178;4.852;2023-04-24T02:46:05;24.15;;;20.10;;
22843;SDS011;11588;51.178;4.852;2023-04-24T02:48:31;26.63;;;21.27;;
22843;SDS011;11588;51.178;4.852;2023-04-24T02:50:56;25.35;;;20.65;;
22843;SDS011;11588;51.178;4.852;2023-04-24T02:53:25;25.40;;;20.10;;
22843;SDS011;11588;51.178;4.852;2023-04-24T02:55:51;27.17;;;20.63;;
22843;SDS011;11588;51.178;4.852;2023-04-24T02:58:16;27.92;;;21.60;;
22843;SDS011;11588;51.178;4.852;2023-04-24T03:00:42;28.38;;;21.17;;
22843;SDS011;11588;51.178;4.852;2023-04-24T03:03:08;30.65;;;21.77;;
22843;SDS011;11588;51.178;4.852;2023-04-24T03:05:33;27.63;;;22.25;;
22843;SDS011;11588;51.178;4.852;2023-04-24T03:07:59;29.17;;;20.88;;
22843;SDS011;11588;51.178;4.852;2023-04-24T03:10:24;27.17;;;20.70;;
22843;SDS011;11588;51.178;4.852;2023-04-24T03:12:50;27.67;;;21.40;;
22843;SDS011;11588;51.178;4.852;2023-04-24T03:15:16;24.73;;;18.92;;
22843;SDS011;11588;51.178;4.852;2023-04-24T03:17:42;26.75;;;19.77;;
22843;SDS011;11588;51.178;4.852;2023-04-24T03:20:07;28.45;;;20.23;;
22843;SDS011;11588;51.178;4.852;2023-04-24T03:22:34;28.63;;;20.83;;
22843;SDS011;11588;51.178;4.852;2023-04-24T03:25:00;30.15;;;21.70;;
22843;SDS011;11588;51.178;4.852;2023-04-24T03:27:25;32.95;;;24.10;;
22843;SDS011;11588;51.178;4.852;2023-04-24T03:29:52;36.22;;;25.73;;
22843;SDS011;11588;51.178;4.852;2023-04-24T03:32:20;38.13;;;26.38;;
22843;SDS011;11588;51.178;4.852;2023-04-24T03:34:45;40.65;;;28.65;;
22843;SDS011;11588;51.178;4.852;2023-04-24T03:37:11;40.17;;;27.15;;
22843;SDS011;11588;51.178;4.852;2023-04-24T03:39:36;27.73;;;20.40;;
22843;SDS011;11588;51.178;4.852;2023-04-24T03:42:01;27.42;;;17.80;;
22843;SDS011;11588;51.178;4.852;2023-04-24T03:44:27;19.98;;;15.00;;
22843;SDS011;11588;51.178;4.852;2023-04-24T03:46:54;24.77;;;15.80;;
22843;SDS011;11588;51.178;4.852;2023-04-24T03:49:19;23.95;;;15.90;;
22843;SDS011;11588;51.178;4.852;2023-04-24T03:51:46;24.35;;;15.18;;
22843;SDS011;11588;51.178;4.852;2023-04-24T03:54:11;18.10;;;10.35;;
22843;SDS011;11588;51.178;4.852;2023-04-24T03:56:36;12.80;;;8.45;;
22843;SDS011;11588;51.178;4.852;2023-04-24T03:59:02;12.88;;;7.15;;
22843;SDS011;11588;51.178;4.852;2023-04-24T04:01:27;11.65;;;6.57;;
22843;SDS011;11588;51.178;4.852;2023-04-24T04:03:53;12.38;;;7.05;;
22843;SDS011;11588;51.178;4.852;2023-04-24T04:06:18;15.45;;;7.18;;
22843;SDS011;11588;51.178;4.852;2023-04-24T04:08:46;15.05;;;8.15;;
22843;SDS011;11588;51.178;4.852;2023-04-24T04:11:11;14.88;;;8.45;;
22843;SDS011;11588;51.178;4.852;2023-04-24T04:13:36;13.07;;;8.20;;
22843;SDS011;11588;51.178;4.852;2023-04-24T04:16:03;12.65;;;8.18;;
22843;SDS011;11588;51.178;4.852;2023-04-24T04:18:28;14.90;;;9.20;;
22843;SDS011;11588;51.178;4.852;2023-04-24T04:20:54;14.50;;;8.75;;
22843;SDS011;11588;51.178;4.852;2023-04-24T04:23:19;17.33;;;9.52;;
22843;SDS011;11588;51.178;4.852;2023-04-24T04:25:46;18.83;;;10.05;;
22843;SDS011;11588;51.178;4.852;2023-04-24T04:28:12;12.52;;;8.65;;
22843;SDS011;11588;51.178;4.852;2023-04-24T04:30:37;17.45;;;10.52;;
22843;SDS011;11588;51.178;4.852;2023-04-24T04:33:03;18.05;;;10.88;;
22843;SDS011;11588;51.178;4.852;2023-04-24T04:35:28;19.15;;;11.77;;
22843;SDS011;11588;51.178;4.852;2023-04-24T04:37:54;18.90;;;12.60;;
22843;SDS011;11588;51.178;4.852;2023-04-24T04:40:20;22.25;;;12.57;;
22843;SDS011;11588;51.178;4.852;2023-04-24T04:42:45;21.35;;;12.27;;
22843;SDS011;11588;51.178;4.852;2023-04-24T04:45:11;23.45;;;13.35;;
22843;SDS011;11588;51.178;4.852;2023-04-24T04:47:36;22.05;;;13.80;;
22843;SDS011;11588;51.178;4.852;2023-04-24T04:50:02;22.58;;;14.25;;
22843;SDS011;11588;51.178;4.852;2023-04-24T04:52:30;29.33;;;16.95;;
22843;SDS011;11588;51.178;4.852;2023-04-24T04:54:57;29.15;;;17.60;;
22843;SDS011;11588;51.178;4.852;2023-04-24T04:57:22;30.00;;;17.60;;
22843;SDS011;11588;51.178;4.852;2023-04-24T04:59:48;32.00;;;19.23;;
22843;SDS011;11588;51.178;4.852;2023-04-24T05:02:13;34.58;;;19.30;;
22843;SDS011;11588;51.178;4.852;2023-04-24T05:04:39;31.80;;;18.77;;
22843;SDS011;11588;51.178;4.852;2023-04-24T05:07:04;35.17;;;21.35;;
22843;SDS011;11588;51.178;4.852;2023-04-24T05:09:30;37.47;;;21.35;;
22843;SDS011;11588;51.178;4.852;2023-04-24T05:11:56;38.33;;;21.00;;
22843;SDS011;11588;51.178;4.852;2023-04-24T05:14:22;29.83;;;17.92;;
22843;SDS011;11588;51.178;4.852;2023-04-24T05:16:47;34.40;;;19.55;;
22843;SDS011;11588;51.178;4.852;2023-04-24T05:19:13;32.08;;;17.52;;
22843;SDS011;11588;51.178;4.852;2023-04-24T05:21:41;34.90;;;17.17;;
22843;SDS011;11588;51.178;4.852;2023-04-24T05:24:06;28.50;;;17.65;;
22843;SDS011;11588;51.178;4.852;2023-04-24T05:26:32;32.00;;;16.70;;
22843;SDS011;11588;51.178;4.852;2023-04-24T05:28:57;25.80;;;15.60;;
22843;SDS011;11588;51.178;4.852;2023-04-24T05:31:22;21.75;;;13.02;;
22843;SDS011;11588;51.178;4.852;2023-04-24T05:33:48;23.63;;;13.40;;
22843;SDS011;11588;51.178;4.852;2023-04-24T05:36:13;24.23;;;12.85;;
22843;SDS011;11588;51.178;4.852;2023-04-24T05:38:39;18.27;;;12.15;;
22843;SDS011;11588;51.178;4.852;2023-04-24T05:41:04;18.35;;;12.57;;
22843;SDS011;11588;51.178;4.852;2023-04-24T05:43:31;22.83;;;12.10;;
22843;SDS011;11588;51.178;4.852;2023-04-24T05:45:57;20.17;;;12.00;;
22843;SDS011;11588;51.178;4.852;2023-04-24T05:48:23;21.95;;;12.90;;
22843;SDS011;11588;51.178;4.852;2023-04-24T05:50:49;22.02;;;12.95;;
22843;SDS011;11588;51.178;4.852;2023-04-24T05:53:15;23.80;;;13.55;;
22843;SDS011;11588;51.178;4.852;2023-04-24T05:55:40;23.77;;;14.15;;
22843;SDS011;11588;51.178;4.852;2023-04-24T05:58:06;30.10;;;15.50;;
22843;SDS011;11588;51.178;4.852;2023-04-24T06:00:31;25.65;;;14.68;;
22843;SDS011;11588;51.178;4.852;2023-04-24T06:02:59;25.63;;;15.68;;
22843;SDS011;11588;51.178;4.852;2023-04-24T06:05:25;26.20;;;15.85;;
22843;SDS011;11588;51.178;4.852;2023-04-24T06:07:50;30.30;;;17.30;;
22843;SDS011;11588;51.178;4.852;2023-04-24T06:10:16;35.00;;;17.50;;
22843;SDS011;11588;51.178;4.852;2023-04-24T06:12:41;38.45;;;18.00;;
22843;SDS011;11588;51.178;4.852;2023-04-24T06:15:07;38.33;;;18.67;;
22843;SDS011;11588;51.178;4.852;2023-04-24T06:17:33;29.40;;;18.33;;
22843;SDS011;11588;51.178;4.852;2023-04-24T06:19:58;39.05;;;19.65;;
22843;SDS011;11588;51.178;4.852;2023-04-24T06:22:24;33.17;;;20.48;;
22843;SDS011;11588;51.178;4.852;2023-04-24T06:24:50;37.15;;;19.75;;
22843;SDS011;11588;51.178;4.852;2023-04-24T06:27:16;31.60;;;19.35;;
22843;SDS011;11588;51.178;4.852;2023-04-24T06:29:41;37.03;;;18.83;;
22843;SDS011;11588;51.178;4.852;2023-04-24T06:32:08;34.63;;;17.42;;
22843;SDS011;11588;51.178;4.852;2023-04-24T06:34:34;33.92;;;17.75;;
22843;SDS011;11588;51.178;4.852;2023-04-24T06:37:02;33.78;;;18.60;;
22843;SDS011;11588;51.178;4.852;2023-04-24T06:39:27;30.73;;;16.90;;
22843;SDS011;11588;51.178;4.852;2023-04-24T06:41:53;29.30;;;16.55;;
22843;SDS011;11588;51.178;4.852;2023-04-24T06:44:18;32.95;;;16.70;;
22843;SDS011;11588;51.178;4.852;2023-04-24T06:46:43;34.65;;;17.38;;
22843;SDS011;11588;51.178;4.852;2023-04-24T06:49:09;39.28;;;20.17;;
22843;SDS011;11588;51.178;4.852;2023-04-24T06:51:35;36.90;;;19.92;;
22843;SDS011;11588;51.178;4.852;2023-04-24T06:54:01;45.67;;;20.27;;
22843;SDS011;11588;51.178;4.852;2023-04-24T06:56:27;32.00;;;17.85;;
22843;SDS011;11588;51.178;4.852;2023-04-24T06:58:53;31.83;;;17.15;;
22843;SDS011;11588;51.178;4.852;2023-04-24T07:01:19;29.48;;;14.48;;
22843;SDS011;11588;51.178;4.852;2023-04-24T07:03:44;30.77;;;14.52;;
22843;SDS011;11588;51.178;4.852;2023-04-24T07:06:10;24.27;;;11.77;;
22843;SDS011;11588;51.178;4.852;2023-04-24T07:08:38;25.63;;;11.35;;
22843;SDS011;11588;51.178;4.852;2023-04-24T07:11:03;24.95;;;10.95;;
22843;SDS011;11588;51.178;4.852;2023-04-24T07:13:29;21.52;;;9.30;;
22843;SDS011;11588;51.178;4.852;2023-04-24T07:15:55;20.02;;;8.82;;
22843;SDS011;11588;51.178;4.852;2023-04-24T07:18:22;20.20;;;8.40;;
22843;SDS011;11588;51.178;4.852;2023-04-24T07:20:47;24.05;;;8.18;;
22843;SDS011;11588;51.178;4.852;2023-04-24T07:23:15;15.07;;;7.65;;
22843;SDS011;11588;51.178;4.852;2023-04-24T07:25:42;20.80;;;7.22;;
22843;SDS011;11588;51.178;4.852;2023-04-24T07:28:09;17.80;;;7.60;;
22843;SDS011;11588;51.178;4.852;2023-04-24T07:30:35;21.08;;;7.45;;
22843;SDS011;11588;51.178;4.852;2023-04-24T07:33:02;15.88;;;7.07;;
22843;SDS011;11588;51.178;4.852;2023-04-24T07:35:29;17.77;;;6.90;;
22843;SDS011;11588;51.178;4.852;2023-04-24T07:37:55;16.08;;;6.28;;
22843;SDS011;11588;51.178;4.852;2023-04-24T07:40:21;15.38;;;5.40;;
22843;SDS011;11588;51.178;4.852;2023-04-24T07:42:47;18.85;;;7.68;;
22843;SDS011;11588;51.178;4.852;2023-04-24T07:45:15;13.75;;;5.45;;
22843;SDS011;11588;51.178;4.852;2023-04-24T07:47:41;17.65;;;5.30;;
22843;SDS011;11588;51.178;4.852;2023-04-24T07:50:08;14.68;;;4.88;;
22843;SDS011;11588;51.178;4.852;2023-04-24T07:52:34;15.45;;;4.78;;
22843;SDS011;11588;51.178;4.852;2023-04-24T07:55:00;18.42;;;5.63;;
22843;SDS011;11588;51.178;4.852;2023-04-24T07:57:27;16.02;;;4.97;;
22843;SDS011;11588;51.178;4.852;2023-04-24T07:59:52;13.75;;;5.53;;
22843;SDS011;11588;51.178;4.852;2023-04-24T08:02:19;14.98;;;4.78;;
22843;SDS011;11588;51.178;4.852;2023-04-24T08:04:44;18.83;;;5.28;;
22843;SDS011;11588;51.178;4.852;2023-04-24T08:07:10;15.48;;;4.57;;
22843;SDS011;11588;51.178;4.852;2023-04-24T08:09:37;16.83;;;4.93;;
22843;SDS011;11588;51.178;4.852;2023-04-24T08:12:03;16.55;;;5.20;;
22843;SDS011;11588;51.178;4.852;2023-04-24T08:14:28;15.98;;;5.43;;
22843;SDS011;11588;51.178;4.852;2023-04-24T08:16:54;23.27;;;5.55;;
22843;SDS011;11588;51.178;4.852;2023-04-24T08:19:21;19.92;;;5.30;;
22843;SDS011;11588;51.178;4.852;2023-04-24T08:21:46;21.45;;;5.50;;
22843;SDS011;11588;51.178;4.852;2023-04-24T08:24:11;23.67;;;5.72;;
22843;SDS011;11588;51.178;4.852;2023-04-24T08:26:37;14.55;;;5.35;;
22843;SDS011;11588;51.178;4.852;2023-04-24T08:29:02;17.15;;;4.97;;
22843;SDS011;11588;51.178;4.852;2023-04-24T08:31:28;22.52;;;4.50;;
22843;SDS011;11588;51.178;4.852;2023-04-24T08:33:53;20.08;;;4.35;;
22843;SDS011;11588;51.178;4.852;2023-04-24T08:36:19;17.73;;;5.18;;
22843;SDS011;11588;51.178;4.852;2023-04-24T08:38:44;24.88;;;5.22;;
22843;SDS011;11588;51.178;4.852;2023-04-24T08:41:12;19.42;;;5.90;;
22843;SDS011;11588;51.178;4.852;2023-04-24T08:43:39;15.63;;;4.90;;
22843;SDS011;11588;51.178;4.852;2023-04-24T08:46:05;18.77;;;4.97;;
22843;SDS011;11588;51.178;4.852;2023-04-24T08:48:31;20.13;;;4.78;;
22843;SDS011;11588;51.178;4.852;2023-04-24T08:53:59;19.92;;;4.00;;
22843;SDS011;11588;51.178;4.852;2023-04-24T08:56:24;15.60;;;3.88;;
22843;SDS011;11588;51.178;4.852;2023-04-24T08:58:50;16.70;;;3.80;;
22843;SDS011;11588;51.178;4.852;2023-04-24T09:01:17;14.02;;;3.80;;
22843;SDS011;11588;51.178;4.852;2023-04-24T09:03:43;14.25;;;3.30;;
22843;SDS011;11588;51.178;4.852;2023-04-24T09:06:09;10.23;;;2.85;;
22843;SDS011;11588;51.178;4.852;2023-04-24T09:08:35;12.65;;;2.92;;
22843;SDS011;11588;51.178;4.852;2023-04-24T09:11:01;15.52;;;3.25;;
22843;SDS011;11588;51.178;4.852;2023-04-24T09:13:28;19.60;;;3.60;;
22843;SDS011;11588;51.178;4.852;2023-04-24T09:15:54;15.85;;;3.70;;
22843;SDS011;11588;51.178;4.852;2023-04-24T09:18:30;12.57;;;3.35;;
22843;SDS011;11588;51.178;4.852;2023-04-24T09:21:02;11.85;;;3.10;;
22843;SDS011;11588;51.178;4.852;2023-04-24T09:23:29;12.80;;;3.28;;
22843;SDS011;11588;51.178;4.852;2023-04-24T09:25:55;15.15;;;3.10;;
22843;SDS011;11588;51.178;4.852;2023-04-24T09:28:25;13.10;;;3.50;;
22843;SDS011;11588;51.178;4.852;2023-04-24T09:31:01;14.57;;;2.72;;
22843;SDS011;11588;51.178;4.852;2023-04-24T09:33:29;14.10;;;3.95;;
22843;SDS011;11588;51.178;4.852;2023-04-24T09:35:55;13.23;;;3.15;;
22843;SDS011;11588;51.178;4.852;2023-04-24T09:38:30;15.48;;;3.35;;
22843;SDS011;11588;51.178;4.852;2023-04-24T09:40:59;13.82;;;2.85;;
22843;SDS011;11588;51.178;4.852;2023-04-24T09:43:26;15.35;;;3.53;;
22843;SDS011;11588;51.178;4.852;2023-04-24T09:45:51;11.20;;;2.50;;
22843;SDS011;11588;51.178;4.852;2023-04-24T09:48:20;12.70;;;3.42;;
22843;SDS011;11588;51.178;4.852;2023-04-24T09:50:54;14.05;;;2.58;;
22843;SDS011;11588;51.178;4.852;2023-04-24T09:53:23;13.55;;;3.33;;
22843;SDS011;11588;51.178;4.852;2023-04-24T09:55:49;11.23;;;3.28;;
22843;SDS011;11588;51.178;4.852;2023-04-24T09:58:15;13.93;;;3.45;;
22843;SDS011;11588;51.178;4.852;2023-04-24T10:00:40;14.30;;;3.45;;
22843;SDS011;11588;51.178;4.852;2023-04-24T10:03:06;11.18;;;3.40;;
22843;SDS011;11588;51.178;4.852;2023-04-24T10:05:33;12.38;;;3.63;;
22843;SDS011;11588;51.178;4.852;2023-04-24T10:08:03;13.70;;;3.03;;
22843;SDS011;11588;51.178;4.852;2023-04-24T10:10:31;7.07;;;3.50;;
22843;SDS011;11588;51.178;4.852;2023-04-24T10:12:57;7.57;;;2.67;;
22843;SDS011;11588;51.178;4.852;2023-04-24T10:15:22;6.10;;;2.10;;
22843;SDS011;11588;51.178;4.852;2023-04-24T10:17:48;7.32;;;2.30;;
22843;SDS011;11588;51.178;4.852;2023-04-24T10:20:18;7.35;;;2.70;;
22843;SDS011;11588;51.178;4.852;2023-04-24T10:22:45;7.95;;;2.85;;
22843;SDS011;11588;51.178;4.852;2023-04-24T10:25:11;6.55;;;2.80;;
22843;SDS011;11588;51.178;4.852;2023-04-24T10:27:37;7.20;;;2.60;;
22843;SDS011;11588;51.178;4.852;2023-04-24T10:30:03;11.18;;;2.35;;
22843;SDS011;11588;51.178;4.852;2023-04-24T10:32:30;8.20;;;2.40;;
22843;SDS011;11588;51.178;4.852;2023-04-24T10:34:56;7.28;;;2.78;;
22843;SDS011;11588;51.178;4.852;2023-04-24T10:37:22;7.10;;;2.45;;
22843;SDS011;11588;51.178;4.852;2023-04-24T10:39:48;12.93;;;2.25;;
22843;SDS011;11588;51.178;4.852;2023-04-24T10:42:14;8.80;;;2.70;;
22843;SDS011;11588;51.178;4.852;2023-04-24T10:44:40;10.05;;;2.35;;
22843;SDS011;11588;51.178;4.852;2023-04-24T10:47:06;9.70;;;2.53;;
22843;SDS011;11588;51.178;4.852;2023-04-24T10:49:37;6.72;;;2.20;;
22843;SDS011;11588;51.178;4.852;2023-04-24T10:52:03;7.72;;;2.25;;
22843;SDS011;11588;51.178;4.852;2023-04-24T10:59:38;10.73;;;2.13;;
22843;SDS011;11588;51.178;4.852;2023-04-24T11:02:03;6.85;;;2.20;;
22843;SDS011;11588;51.178;4.852;2023-04-24T11:04:34;5.53;;;1.80;;
22843;SDS011;11588;51.178;4.852;2023-04-24T11:07:00;5.10;;;2.20;;
22843;SDS011;11588;51.178;4.852;2023-04-24T11:09:26;4.75;;;1.85;;
22843;SDS011;11588;51.178;4.852;2023-04-24T11:11:52;4.13;;;1.67;;
22843;SDS011;11588;51.178;4.852;2023-04-24T11:14:27;5.50;;;1.80;;
22843;SDS011;11588;51.178;4.852;2023-04-24T11:16:53;4.13;;;1.25;;
22843;SDS011;11588;51.178;4.852;2023-04-24T11:19:22;3.20;;;1.10;;
22843;SDS011;11588;51.178;4.852;2023-04-24T11:26:55;4.25;;;1.15;;
22843;SDS011;11588;51.178;4.852;2023-04-24T11:29:20;5.45;;;1.42;;
22843;SDS011;11588;51.178;4.852;2023-04-24T11:31:47;7.10;;;1.35;;
22843;SDS011;11588;51.178;4.852;2023-04-24T11:34:16;5.50;;;1.83;;
22843;SDS011;11588;51.178;4.852;2023-04-24T11:36:43;7.07;;;1.42;;
22843;SDS011;11588;51.178;4.852;2023-04-24T11:39:09;5.03;;;1.45;;
22843;SDS011;11588;51.178;4.852;2023-04-24T11:41:36;4.53;;;1.27;;
22843;SDS011;11588;51.178;4.852;2023-04-24T11:44:05;5.90;;;1.50;;
22843;SDS011;11588;51.178;4.852;2023-04-24T11:46:32;5.43;;;1.48;;
22843;SDS011;11588;51.178;4.852;2023-04-24T11:48:58;6.75;;;1.42;;
22843;SDS011;11588;51.178;4.852;2023-04-24T11:51:24;4.72;;;1.70;;
22843;SDS011;11588;51.178;4.852;2023-04-24T11:53:50;8.15;;;1.65;;
22843;SDS011;11588;51.178;4.852;2023-04-24T11:56:17;5.47;;;1.95;;
22843;SDS011;11588;51.178;4.852;2023-04-24T11:58:44;5.80;;;2.00;;
22843;SDS011;11588;51.178;4.852;2023-04-24T12:01:10;7.22;;;1.80;;
22843;SDS011;11588;51.178;4.852;2023-04-24T12:03:39;7.65;;;1.60;;
22843;SDS011;11588;51.178;4.852;2023-04-24T12:06:10;7.82;;;1.77;;
22843;SDS011;11588;51.178;4.852;2023-04-24T12:08:36;7.53;;;1.77;;
22843;SDS011;11588;51.178;4.852;2023-04-24T12:11:02;6.40;;;1.42;;
22843;SDS011;11588;51.178;4.852;2023-04-24T12:13:28;5.40;;;1.67;;
22843;SDS011;11588;51.178;4.852;2023-04-24T12:15:56;4.72;;;1.98;;
22843;SDS011;11588;51.178;4.852;2023-04-24T12:18:23;8.85;;;2.35;;
22843;SDS011;11588;51.178;4.852;2023-04-24T12:20:49;7.30;;;1.88;;
22843;SDS011;11588;51.178;4.852;2023-04-24T12:23:15;6.82;;;1.90;;
22843;SDS011;11588;51.178;4.852;2023-04-24T12:25:40;6.82;;;2.30;;
22843;SDS011;11588;51.178;4.852;2023-04-24T12:28:12;6.70;;;1.90;;
22843;SDS011;11588;51.178;4.852;2023-04-24T12:33:10;7.38;;;1.77;;
22843;SDS011;11588;51.178;4.852;2023-04-24T12:35:35;6.30;;;1.90;;
22843;SDS011;11588;51.178;4.852;2023-04-24T12:40:35;6.68;;;2.00;;
22843;SDS011;11588;51.178;4.852;2023-04-24T12:43:00;5.85;;;1.92;;
22843;SDS011;11588;51.178;4.852;2023-04-24T12:45:29;6.93;;;2.38;;
22843;SDS011;11588;51.178;4.852;2023-04-24T12:47:54;7.85;;;2.00;;
22843;SDS011;11588;51.178;4.852;2023-04-24T12:50:20;6.88;;;2.13;;
22843;SDS011;11588;51.178;4.852;2023-04-24T12:52:45;7.22;;;2.20;;
22843;SDS011;11588;51.178;4.852;2023-04-24T12:55:10;5.38;;;2.00;;
22843;SDS011;11588;51.178;4.852;2023-04-24T12:57:38;4.93;;;2.08;;
22843;SDS011;11588;51.178;4.852;2023-04-24T13:00:06;4.22;;;1.70;;
22843;SDS011;11588;51.178;4.852;2023-04-24T13:02:31;5.60;;;1.75;;
22843;SDS011;11588;51.178;4.852;2023-04-24T13:04:57;6.63;;;2.45;;
22843;SDS011;11588;51.178;4.852;2023-04-24T13:07:23;5.22;;;2.25;;
22843;SDS011;11588;51.178;4.852;2023-04-24T13:09:50;3.97;;;1.90;;
22843;SDS011;11588;51.178;4.852;2023-04-24T13:12:15;5.68;;;2.08;;
22843;SDS011;11588;51.178;4.852;2023-04-24T13:14:41;3.45;;;1.70;;
22843;SDS011;11588;51.178;4.852;2023-04-24T13:17:07;3.50;;;1.58;;
22843;SDS011;11588;51.178;4.852;2023-04-24T13:19:38;3.90;;;1.80;;
22843;SDS011;11588;51.178;4.852;2023-04-24T13:22:05;2.97;;;0.90;;
22843;SDS011;11588;51.178;4.852;2023-04-24T13:24:30;3.83;;;1.30;;
22843;SDS011;11588;51.178;4.852;2023-04-24T13:26:58;4.78;;;1.13;;
22843;SDS011;11588;51.178;4.852;2023-04-24T13:29:23;3.83;;;1.25;;
22843;SDS011;11588;51.178;4.852;2023-04-24T13:31:50;7.40;;;1.45;;
22843;SDS011;11588;51.178;4.852;2023-04-24T13:34:16;5.82;;;1.65;;
22843;SDS011;11588;51.178;4.852;2023-04-24T13:36:41;3.97;;;1.40;;
22843;SDS011;11588;51.178;4.852;2023-04-24T13:39:07;3.72;;;1.50;;
22843;SDS011;11588;51.178;4.852;2023-04-24T13:41:32;2.88;;;1.20;;
22843;SDS011;11588;51.178;4.852;2023-04-24T13:43:58;4.68;;;1.25;;
22843;SDS011;11588;51.178;4.852;2023-04-24T13:46:23;3.30;;;1.00;;
22843;SDS011;11588;51.178;4.852;2023-04-24T13:48:50;3.63;;;1.35;;
22843;SDS011;11588;51.178;4.852;2023-04-24T13:51:16;3.65;;;1.65;;
22843;SDS011;11588;51.178;4.852;2023-04-24T13:53:41;4.53;;;1.52;;
22843;SDS011;11588;51.178;4.852;2023-04-24T13:56:07;4.40;;;1.90;;
22843;SDS011;11588;51.178;4.852;2023-04-24T13:58:35;3.45;;;1.35;;
22843;SDS011;11588;51.178;4.852;2023-04-24T14:01:02;4.95;;;1.80;;
22843;SDS011;11588;51.178;4.852;2023-04-24T14:03:30;6.45;;;1.55;;
22843;SDS011;11588;51.178;4.852;2023-04-24T14:05:55;3.80;;;1.60;;
22843;SDS011;11588;51.178;4.852;2023-04-24T14:08:22;6.38;;;2.00;;
22843;SDS011;11588;51.178;4.852;2023-04-24T14:10:48;5.97;;;1.42;;
22843;SDS011;11588;51.178;4.852;2023-04-24T14:13:14;3.20;;;1.17;;
22843;SDS011;11588;51.178;4.852;2023-04-24T14:15:40;4.30;;;0.95;;
22843;SDS011;11588;51.178;4.852;2023-04-24T14:18:07;4.50;;;1.10;;
22843;SDS011;11588;51.178;4.852;2023-04-24T14:20:33;4.18;;;1.58;;
22843;SDS011;11588;51.178;4.852;2023-04-24T14:23:00;2.78;;;1.00;;
22843;SDS011;11588;51.178;4.852;2023-04-24T14:25:26;3.42;;;1.40;;
22843;SDS011;11588;51.178;4.852;2023-04-24T14:27:51;2.33;;;1.05;;
22843;SDS011;11588;51.178;4.852;2023-04-24T14:30:17;2.15;;;1.15;;
22843;SDS011;11588;51.178;4.852;2023-04-24T14:32:42;3.42;;;1.20;;
22843;SDS011;11588;51.178;4.852;2023-04-24T14:35:08;4.90;;;1.20;;
22843;SDS011;11588;51.178;4.852;2023-04-24T14:37:33;4.55;;;1.83;;
22843;SDS011;11588;51.178;4.852;2023-04-24T14:39:59;6.38;;;1.80;;
22843;SDS011;11588;51.178;4.852;2023-04-24T14:42:25;4.68;;;1.75;;
22843;SDS011;11588;51.178;4.852;2023-04-24T14:44:50;4.88;;;1.65;;